createdAt,value
2023-04-23T00:01:05.581Z,13.60
2023-04-23T00:04:35.492Z,13.70
2023-04-23T00:07:04.362Z,13.50
2023-04-23T00:09:33.323Z,13.50
2023-04-23T00:12:02.038Z,13.40
2023-04-23T00:14:32.056Z,13.40
2023-04-23T00:17:00.168Z,13.40
2023-04-23T00:19:28.093Z,13.30
2023-04-23T00:21:55.944Z,13.20
2023-04-23T00:24:23.860Z,13.20
2023-04-23T00:26:53.031Z,13.20
2023-04-23T00:29:20.907Z,13.10
2023-04-23T00:31:50.216Z,13.00
2023-04-23T00:34:18.379Z,13.00
2023-04-23T00:36:46.630Z,12.90
2023-04-23T00:39:14.585Z,12.90
2023-04-23T00:41:44.372Z,12.80
2023-04-23T00:44:13.200Z,12.80
2023-04-23T00:46:41.180Z,12.70
2023-04-23T00:49:10.554Z,12.60
2023-04-23T00:51:38.489Z,12.60
2023-04-23T00:54:07.318Z,12.60
2023-04-23T00:56:35.824Z,12.50
2023-04-23T00:59:04.214Z,12.40
2023-04-23T01:01:33.363Z,12.40
2023-04-23T01:04:01.574Z,12.40
2023-04-23T01:06:31.829Z,12.30
2023-04-23T01:09:00.274Z,12.20
2023-04-23T01:11:28.425Z,12.10
2023-04-23T01:13:57.465Z,12.10
2023-04-23T01:16:28.605Z,12.00
2023-04-23T01:18:56.834Z,11.90
2023-04-23T01:21:26.333Z,11.80
2023-04-23T01:23:55.589Z,11.70
2023-04-23T01:26:25.274Z,11.80
2023-04-23T01:28:54.027Z,11.70
2023-04-23T01:31:22.704Z,11.70
2023-04-23T01:33:52.131Z,11.70
2023-04-23T01:36:20.673Z,11.70
2023-04-23T01:38:48.906Z,11.70
2023-04-23T01:41:18.414Z,11.70
2023-04-23T01:43:47.097Z,11.70
2023-04-23T01:46:15.348Z,11.70
2023-04-23T01:48:43.575Z,11.70
2023-04-23T01:51:11.520Z,11.60
2023-04-23T01:53:39.642Z,11.60
2023-04-23T01:56:09.837Z,11.50
2023-04-23T01:58:39.135Z,11.50
2023-04-23T02:01:07.206Z,11.40
2023-04-23T02:03:35.733Z,11.30
2023-04-23T02:06:05.090Z,11.40
2023-04-23T02:08:33.054Z,11.30
2023-04-23T02:11:00.932Z,11.30
2023-04-23T02:13:28.875Z,11.20
2023-04-23T02:15:58.088Z,11.20
2023-04-23T02:18:26.062Z,11.20
2023-04-23T02:20:54.899Z,11.20
2023-04-23T02:23:22.956Z,11.20
2023-04-23T02:25:51.146Z,11.10
2023-04-23T02:28:19.169Z,11.10
2023-04-23T02:30:48.033Z,11.00
2023-04-23T02:33:19.655Z,10.90
2023-04-23T02:35:47.682Z,10.90
2023-04-23T02:38:15.537Z,10.80
2023-04-23T02:40:43.745Z,10.80
2023-04-23T02:43:11.879Z,10.70
2023-04-23T02:45:39.940Z,10.80
2023-04-23T02:48:07.865Z,10.70
2023-04-23T02:50:39.082Z,10.70
2023-04-23T02:53:07.134Z,10.70
2023-04-23T02:55:35.172Z,10.70
2023-04-23T02:58:03.112Z,10.70
2023-04-23T03:00:32.536Z,10.60
2023-04-23T03:03:00.808Z,10.60
2023-04-23T03:05:29.065Z,10.60
2023-04-23T03:07:58.399Z,10.60
2023-04-23T03:10:27.298Z,10.60
2023-04-23T03:12:56.427Z,10.50
2023-04-23T03:15:24.747Z,10.50
2023-04-23T03:17:53.839Z,10.40
2023-04-23T03:20:21.795Z,10.40
2023-04-23T03:22:49.765Z,10.30
2023-04-23T03:25:20.420Z,10.20
2023-04-23T03:27:48.336Z,10.10
2023-04-23T03:30:16.392Z,10.10
2023-04-23T03:32:44.571Z,10.00
2023-04-23T03:35:13.393Z,9.90
2023-04-23T03:37:45.560Z,9.90
2023-04-23T03:40:15.721Z,9.90
2023-04-23T03:42:47.720Z,10.00
2023-04-23T03:45:17.775Z,10.20
2023-04-23T03:47:46.166Z,10.30
2023-04-23T03:50:14.706Z,10.40
2023-04-23T03:52:45.073Z,10.60
2023-04-23T03:55:23.329Z,10.70
2023-04-23T03:57:52.849Z,10.70
2023-04-23T04:00:24.418Z,10.70
2023-04-23T04:02:52.511Z,10.80
2023-04-23T04:05:23.078Z,10.80
2023-04-23T04:07:51.051Z,10.90
2023-04-23T04:10:19.052Z,11.00
2023-04-23T04:12:47.954Z,11.10
2023-04-23T04:15:20.380Z,11.10
2023-04-23T04:17:49.095Z,11.20
2023-04-23T04:20:17.003Z,11.20
2023-04-23T04:22:44.884Z,11.20
2023-04-23T04:25:13.248Z,11.20
2023-04-23T04:27:42.202Z,11.20
2023-04-23T04:30:11.264Z,11.10
2023-04-23T04:32:42.176Z,11.20
2023-04-23T04:35:10.483Z,11.20
2023-04-23T04:37:38.413Z,11.30
2023-04-23T04:40:08.080Z,11.50
2023-04-23T04:42:36.301Z,11.70
2023-04-23T04:45:04.841Z,11.90
2023-04-23T04:47:33.105Z,12.00
2023-04-23T04:50:02.332Z,12.20
2023-04-23T04:52:30.361Z,12.30
2023-04-23T04:54:58.196Z,12.50
2023-04-23T04:57:26.145Z,12.60
2023-04-23T04:59:54.050Z,12.80
2023-04-23T05:02:23.429Z,12.90
2023-04-23T05:04:51.444Z,13.00
2023-04-23T05:07:21.043Z,13.00
2023-04-23T05:09:48.889Z,13.20
2023-04-23T05:12:16.704Z,13.20
2023-04-23T05:14:44.563Z,13.20
2023-04-23T05:17:13.101Z,13.20
2023-04-23T05:19:40.947Z,13.20
2023-04-23T05:22:08.907Z,13.20
2023-04-23T05:24:38.099Z,13.20
2023-04-23T05:27:06.197Z,13.10
2023-04-23T05:29:34.077Z,13.10
2023-04-23T05:32:02.041Z,13.10
2023-04-23T05:34:29.962Z,13.20
2023-04-23T05:36:57.925Z,13.20
2023-04-23T05:39:26.405Z,13.10
2023-04-23T05:41:56.348Z,13.10
2023-04-23T05:44:24.797Z,13.10
2023-04-23T05:46:52.646Z,13.10
2023-04-23T05:49:20.506Z,13.10
2023-04-23T05:51:48.461Z,13.00
2023-04-23T05:54:16.335Z,12.90
2023-04-23T05:56:44.422Z,12.90
2023-04-23T05:59:13.840Z,12.80
2023-04-23T06:01:41.997Z,12.70
2023-04-23T06:04:10.053Z,12.70
2023-04-23T06:06:38.079Z,12.80
2023-04-23T06:09:06.948Z,12.90
2023-04-23T06:11:36.066Z,12.80
2023-04-23T06:14:04.556Z,12.90
2023-04-23T06:16:34.094Z,13.00
2023-04-23T06:19:01.933Z,13.00
2023-04-23T06:21:29.771Z,13.20
2023-04-23T06:23:57.759Z,13.40
2023-04-23T06:26:25.667Z,13.90
2023-04-23T06:28:57.177Z,14.60
2023-04-23T06:31:31.341Z,15.20
2023-04-23T06:34:01.270Z,15.70
2023-04-23T06:36:29.186Z,16.20
2023-04-23T06:38:57.018Z,16.70
2023-04-23T06:41:25.028Z,17.00
2023-04-23T06:44:06.153Z,17.50
2023-04-23T06:46:37.489Z,18.00
2023-04-23T06:49:06.718Z,17.80
2023-04-23T06:51:35.981Z,17.20
2023-04-23T06:54:03.820Z,16.70
2023-04-23T06:56:31.735Z,16.50
2023-04-23T06:58:59.587Z,16.60
2023-04-23T07:01:27.742Z,17.00
2023-04-23T07:03:55.709Z,17.00
2023-04-23T07:06:24.930Z,17.00
2023-04-23T07:08:52.775Z,16.80
2023-04-23T07:11:20.631Z,16.80
2023-04-23T07:13:48.470Z,16.80
2023-04-23T07:16:16.662Z,16.80
2023-04-23T07:18:44.469Z,16.90
2023-04-23T07:21:12.445Z,16.90
2023-04-23T07:23:41.791Z,16.90
2023-04-23T07:26:09.666Z,16.60
2023-04-23T07:28:37.486Z,16.50
2023-04-23T07:31:05.385Z,16.40
2023-04-23T07:33:33.291Z,16.30
2023-04-23T07:36:01.200Z,16.10
2023-04-23T07:38:29.077Z,15.80
2023-04-23T07:40:58.355Z,15.60
2023-04-23T07:43:26.312Z,15.40
2023-04-23T07:45:54.212Z,15.20
2023-04-23T07:48:22.112Z,15.00
2023-04-23T07:50:50.031Z,14.90
2023-04-23T07:53:18.207Z,14.80
2023-04-23T07:55:46.391Z,14.80
2023-04-23T07:58:15.671Z,15.00
2023-04-23T08:00:43.855Z,15.30
2023-04-23T08:03:11.865Z,15.70
2023-04-23T08:05:41.313Z,16.10
2023-04-23T08:08:09.626Z,17.00
2023-04-23T08:10:37.557Z,17.30
2023-04-23T08:13:05.715Z,17.30
2023-04-23T08:15:34.964Z,17.00
2023-04-23T08:18:02.843Z,16.70
2023-04-23T08:20:32.132Z,16.60
2023-04-23T08:23:00.093Z,16.30
2023-04-23T08:25:27.959Z,16.10
2023-04-23T08:27:55.881Z,16.10
2023-04-23T08:30:23.806Z,16.10
2023-04-23T08:32:54.690Z,16.10
2023-04-23T08:35:23.242Z,15.90
2023-04-23T08:37:51.396Z,15.90
2023-04-23T08:40:19.753Z,15.50
2023-04-23T08:42:51.924Z,15.30
2023-04-23T08:45:20.642Z,15.10
2023-04-23T08:47:48.919Z,14.80
2023-04-23T08:50:20.270Z,14.70
2023-04-23T08:52:50.732Z,14.50
2023-04-23T08:55:19.615Z,14.40
2023-04-23T08:57:48.637Z,14.60
2023-04-23T09:00:18.862Z,14.70
2023-04-23T09:02:49.011Z,14.70
2023-04-23T09:05:19.326Z,14.80
2023-04-23T09:07:47.254Z,14.70
2023-04-23T09:10:18.264Z,14.40
2023-04-23T09:12:48.397Z,14.40
2023-04-23T09:15:16.637Z,14.30
2023-04-23T09:17:48.325Z,14.40
2023-04-23T09:20:18.042Z,14.60
2023-04-23T09:22:47.991Z,14.90
2023-04-23T09:25:18.101Z,15.00
2023-04-23T09:27:46.637Z,15.20
2023-04-23T09:30:15.802Z,15.50
2023-04-23T09:32:46.288Z,15.80
2023-04-23T09:35:16.192Z,16.10
2023-04-23T09:37:48.637Z,16.10
2023-04-23T09:40:17.908Z,16.10
2023-04-23T09:42:50.087Z,16.20
2023-04-23T09:45:18.361Z,16.00
2023-04-23T09:47:51.210Z,15.80
2023-04-23T09:50:19.466Z,15.60
2023-04-23T09:52:57.096Z,15.50
2023-04-23T09:55:35.579Z,15.40
2023-04-23T09:58:05.298Z,15.30
2023-04-23T10:00:38.114Z,14.70
2023-04-23T10:03:07.842Z,14.40
2023-04-23T10:05:59.726Z,13.90
2023-04-23T10:08:30.166Z,13.50
2023-04-23T10:11:10.028Z,13.40
2023-04-23T10:13:46.393Z,13.10
2023-04-23T10:16:22.241Z,12.90
2023-04-23T10:18:54.092Z,13.00
2023-04-23T10:21:26.815Z,13.00
2023-04-23T10:23:58.002Z,13.30
2023-04-23T10:26:26.970Z,13.40
2023-04-23T10:28:56.456Z,13.90
2023-04-23T10:31:25.474Z,14.40
2023-04-23T10:33:58.368Z,15.20
2023-04-23T10:36:30.513Z,15.80
2023-04-23T10:39:04.120Z,16.30
2023-04-23T10:41:37.373Z,16.90
2023-04-23T10:44:05.891Z,17.70
2023-04-23T10:46:37.955Z,18.40
2023-04-23T10:49:09.047Z,18.90
2023-04-23T10:54:11.182Z,19.10
2023-04-23T10:56:39.923Z,19.30
2023-04-23T10:59:09.524Z,18.90
2023-04-23T11:02:39.553Z,18.80
2023-04-23T11:05:10.401Z,18.40
2023-04-23T11:07:39.373Z,18.00
2023-04-23T11:10:14.907Z,18.70
2023-04-23T11:12:42.926Z,19.40
2023-04-23T11:15:15.051Z,19.40
2023-04-23T11:18:03.139Z,19.40
2023-04-23T11:20:31.173Z,19.80
2023-04-23T11:22:59.164Z,19.90
2023-04-23T11:25:30.539Z,19.60
2023-04-23T11:27:59.514Z,19.80
2023-04-23T11:30:29.685Z,19.50
2023-04-23T11:32:59.972Z,19.50
2023-04-23T11:35:29.386Z,19.40
2023-04-23T11:37:57.788Z,19.40
2023-04-23T11:40:25.843Z,19.30
2023-04-23T11:42:55.882Z,19.20
2023-04-23T11:45:25.256Z,19.30
2023-04-23T11:47:56.178Z,19.50
2023-04-23T11:50:25.864Z,19.30
2023-04-23T11:52:53.815Z,19.10
2023-04-23T11:55:22.398Z,19.30
2023-04-23T11:57:51.647Z,19.60
2023-04-23T12:00:22.947Z,19.70
2023-04-23T12:02:55.859Z,19.70
2023-04-23T12:05:25.158Z,19.60
2023-04-23T12:07:53.136Z,19.30
2023-04-23T12:10:22.909Z,19.10
2023-04-23T12:12:52.714Z,19.00
2023-04-23T12:15:22.242Z,19.40
2023-04-23T12:17:52.106Z,19.30
2023-04-23T12:20:21.437Z,19.50
2023-04-23T12:22:49.689Z,20.00
2023-04-23T12:25:17.612Z,20.30
2023-04-23T12:27:46.147Z,20.30
2023-04-23T12:30:14.996Z,20.10
2023-04-23T12:32:44.993Z,19.70
2023-04-23T12:35:14.102Z,19.70
2023-04-23T12:37:42.017Z,19.60
2023-04-23T12:40:11.099Z,19.50
2023-04-23T12:42:38.995Z,19.40
2023-04-23T12:45:09.498Z,19.20
2023-04-23T12:47:37.580Z,18.70
2023-04-23T12:50:08.522Z,18.60
2023-04-23T12:52:36.664Z,18.40
2023-04-23T12:55:05.191Z,18.20
2023-04-23T12:57:33.190Z,18.10
2023-04-23T13:00:01.055Z,18.30
2023-04-23T13:02:29.080Z,18.70
2023-04-23T13:05:01.280Z,19.20
2023-04-23T13:07:30.995Z,19.50
2023-04-23T13:09:59.659Z,19.20
2023-04-23T13:12:27.923Z,19.10
2023-04-23T13:14:55.959Z,18.80
2023-04-23T13:17:26.175Z,18.60
2023-04-23T13:19:54.390Z,18.60
2023-04-23T13:22:28.273Z,18.50
2023-04-23T13:24:58.226Z,18.50
2023-04-23T13:27:26.878Z,18.90
2023-04-23T13:29:54.908Z,19.20
2023-04-23T13:32:23.699Z,19.60
2023-04-23T13:34:51.903Z,19.80
2023-04-23T13:37:19.762Z,19.70
2023-04-23T13:39:47.784Z,19.50
2023-04-23T13:42:17.295Z,19.40
2023-04-23T13:44:45.182Z,19.40
2023-04-23T13:47:13.043Z,19.30
2023-04-23T13:49:41.153Z,19.10
2023-04-23T13:52:09.177Z,19.00
2023-04-23T13:54:37.100Z,19.10
2023-04-23T13:57:05.375Z,18.90
2023-04-23T13:59:34.844Z,18.90
2023-04-23T14:02:02.677Z,18.90
2023-04-23T14:04:30.668Z,18.70
2023-04-23T14:06:58.546Z,18.70
2023-04-23T14:09:26.616Z,18.70
2023-04-23T14:11:54.763Z,18.60
2023-04-23T14:14:22.665Z,18.60
2023-04-23T14:16:52.659Z,18.80
2023-04-23T14:19:20.661Z,19.00
2023-04-23T14:21:48.589Z,19.10
2023-04-23T14:24:23.138Z,19.10
2023-04-23T14:26:51.067Z,19.30
2023-04-23T14:29:24.343Z,19.20
2023-04-23T14:31:54.110Z,19.10
2023-04-23T14:34:22.330Z,18.80
2023-04-23T14:36:52.752Z,18.90
2023-04-23T14:39:20.799Z,19.00
2023-04-23T14:41:48.633Z,19.10
2023-04-23T14:44:16.552Z,19.20
2023-04-23T14:46:44.443Z,19.30
2023-04-23T14:49:14.335Z,19.20
2023-04-23T14:51:42.694Z,19.40
2023-04-23T14:54:10.778Z,19.40
2023-04-23T14:56:38.740Z,19.20
2023-04-23T14:59:06.655Z,18.90
2023-04-23T15:01:34.566Z,18.40
2023-04-23T15:04:02.667Z,18.40
2023-04-23T15:06:32.430Z,18.40
2023-04-23T15:09:00.395Z,18.30
2023-04-23T15:11:28.389Z,18.40
2023-04-23T15:14:04.812Z,18.20
2023-04-23T15:19:07.252Z,18.00
2023-04-23T15:21:36.596Z,17.70
2023-04-23T15:24:04.907Z,17.50
2023-04-23T15:26:33.831Z,17.60
2023-04-23T15:29:03.069Z,17.60
2023-04-23T15:31:31.192Z,17.60
2023-04-23T15:33:59.212Z,17.50
2023-04-23T15:36:27.170Z,17.40
2023-04-23T15:38:56.518Z,17.30
2023-04-23T15:41:24.354Z,17.20
2023-04-23T15:43:53.784Z,17.20
2023-04-23T15:46:21.862Z,17.20
2023-04-23T15:48:49.758Z,17.00
2023-04-23T15:51:17.976Z,16.90
2023-04-23T15:53:45.999Z,16.70
2023-04-23T15:56:15.291Z,16.50
2023-04-23T15:58:43.356Z,16.30
2023-04-23T16:01:11.448Z,16.00
2023-04-23T16:03:39.861Z,15.70
2023-04-23T16:06:09.449Z,15.40
2023-04-23T16:08:38.463Z,14.70
2023-04-23T16:11:08.869Z,14.20
2023-04-23T16:13:38.197Z,13.80
2023-04-23T16:16:06.457Z,13.50
2023-04-23T16:18:34.414Z,13.50
2023-04-23T16:21:02.457Z,13.60
2023-04-23T16:23:30.544Z,13.70
2023-04-23T16:25:58.535Z,13.80
2023-04-23T16:28:26.523Z,13.90
2023-04-23T16:30:56.674Z,14.10
2023-04-23T16:33:25.735Z,14.20
2023-04-23T16:35:53.654Z,14.30
2023-04-23T16:38:21.521Z,14.40
2023-04-23T16:40:50.322Z,14.30
2023-04-23T16:43:18.244Z,14.20
2023-04-23T16:45:46.450Z,14.20
2023-04-23T16:48:16.725Z,14.10
2023-04-23T16:50:44.689Z,14.00
2023-04-23T16:53:13.463Z,14.10
2023-04-23T16:55:41.425Z,14.10
2023-04-23T16:58:10.109Z,14.10
2023-04-23T17:00:37.996Z,14.10
2023-04-23T17:03:06.077Z,14.00
2023-04-23T17:05:40.149Z,14.10
2023-04-23T17:08:08.127Z,14.00
2023-04-23T17:10:36.066Z,13.90
2023-04-23T17:13:04.004Z,14.00
2023-04-23T17:15:32.255Z,14.00
2023-04-23T17:18:00.123Z,14.00
2023-04-23T17:20:28.998Z,13.90
2023-04-23T17:22:58.458Z,13.90
2023-04-23T17:25:26.295Z,13.90
2023-04-23T17:27:54.585Z,13.90
2023-04-23T17:30:24.416Z,13.90
2023-04-23T17:32:52.373Z,13.80
2023-04-23T17:35:20.410Z,13.70
2023-04-23T17:37:48.551Z,13.60
2023-04-23T17:40:18.265Z,13.40
2023-04-23T17:42:46.309Z,13.30
2023-04-23T17:45:14.163Z,13.20
2023-04-23T17:47:42.073Z,13.10
2023-04-23T17:50:11.739Z,13.00
2023-04-23T17:52:40.277Z,12.90
2023-04-23T17:55:09.403Z,12.70
2023-04-23T17:57:38.701Z,12.60
2023-04-23T18:00:10.045Z,12.50
2023-04-23T18:02:41.409Z,12.40
2023-04-23T18:05:10.005Z,12.30
2023-04-23T18:07:38.513Z,12.20
2023-04-23T18:10:09.327Z,12.10
2023-04-23T18:12:38.920Z,12.00
2023-04-23T18:15:08.712Z,11.90
2023-04-23T18:17:36.619Z,11.80
2023-04-23T18:20:06.253Z,11.60
2023-04-23T18:22:34.398Z,11.50
2023-04-23T18:25:02.501Z,11.30
2023-04-23T18:27:33.444Z,11.20
2023-04-23T18:30:05.609Z,11.10
2023-04-23T18:32:40.697Z,11.00
2023-04-23T18:35:10.066Z,10.80
2023-04-23T18:37:42.818Z,10.70
2023-04-23T18:40:11.494Z,10.50
2023-04-23T18:42:39.723Z,10.50
2023-04-23T18:45:10.758Z,10.40
2023-04-23T18:47:44.121Z,10.30
2023-04-23T18:50:36.291Z,10.20
2023-04-23T18:53:04.288Z,10.10
2023-04-23T18:55:34.896Z,10.10
2023-04-23T18:58:02.965Z,10.00
2023-04-23T19:00:32.484Z,9.90
2023-04-23T19:03:02.769Z,9.90
2023-04-23T19:05:34.693Z,9.80
2023-04-23T19:08:03.375Z,9.70
2023-04-23T19:10:31.535Z,9.60
2023-04-23T19:12:59.777Z,9.50
2023-04-23T19:15:27.658Z,9.40
2023-04-23T19:17:57.023Z,9.40
2023-04-23T19:20:24.919Z,9.50
2023-04-23T19:22:52.787Z,9.70
2023-04-23T19:25:20.875Z,10.00
2023-04-23T19:27:48.981Z,10.10
2023-04-23T19:30:16.961Z,10.10
2023-04-23T19:32:45.105Z,10.20
2023-04-23T19:35:14.346Z,10.30
2023-04-23T19:37:42.401Z,10.40
2023-04-23T19:40:11.188Z,10.40
2023-04-23T19:42:39.056Z,10.50
2023-04-23T19:45:07.767Z,10.50
2023-04-23T19:47:38.740Z,10.60
2023-04-23T19:50:07.541Z,10.70
2023-04-23T19:52:37.591Z,10.70
2023-04-23T19:55:07.381Z,10.50
2023-04-23T19:57:35.581Z,10.70
2023-04-23T20:00:04.358Z,10.70
2023-04-23T20:02:34.422Z,10.70
2023-04-23T20:05:03.200Z,10.80
2023-04-23T20:07:31.295Z,10.80
2023-04-23T20:10:00.842Z,10.80
2023-04-23T20:12:29.940Z,10.80
2023-04-23T20:14:58.824Z,10.90
2023-04-23T20:17:29.578Z,11.00
2023-04-23T20:20:01.561Z,10.90
2023-04-23T20:22:29.767Z,11.00
2023-04-23T20:24:59.219Z,11.00
2023-04-23T20:27:28.976Z,10.90
2023-04-23T20:29:57.217Z,10.90
2023-04-23T20:32:25.055Z,10.90
2023-04-23T20:34:53.326Z,10.90
2023-04-23T20:37:21.821Z,11.00
2023-04-23T20:39:50.049Z,11.00
2023-04-23T20:42:18.160Z,11.10
2023-04-23T20:44:48.975Z,11.00
2023-04-23T20:47:17.875Z,11.10
2023-04-23T20:49:45.991Z,11.00
2023-04-23T20:52:15.247Z,11.10
2023-04-23T20:54:43.186Z,11.10
2023-04-23T20:57:11.643Z,11.20
2023-04-23T20:59:39.911Z,11.20
2023-04-23T21:02:12.917Z,11.20
2023-04-23T21:04:41.090Z,11.20
2023-04-23T21:07:09.115Z,11.20
2023-04-23T21:09:36.998Z,11.20
2023-04-23T21:12:05.277Z,11.10
2023-04-23T21:14:34.319Z,11.10
2023-04-23T21:17:02.146Z,11.20
2023-04-23T21:19:31.412Z,11.20
2023-04-23T21:21:59.335Z,11.20
2023-04-23T21:24:27.293Z,11.30
2023-04-23T21:26:55.231Z,11.30
2023-04-23T21:29:23.130Z,11.30
2023-04-23T21:31:52.721Z,11.30
2023-04-23T21:34:21.387Z,11.30
2023-04-23T21:36:50.784Z,11.30
2023-04-23T21:39:18.645Z,11.30
2023-04-23T21:41:47.212Z,11.40
2023-04-23T21:44:15.127Z,11.40
2023-04-23T21:46:44.449Z,11.40
2023-04-23T21:49:13.180Z,11.50
2023-04-23T21:51:41.132Z,11.60
2023-04-23T21:54:10.731Z,11.60
2023-04-23T21:56:39.003Z,11.60
2023-04-23T21:59:06.846Z,11.60
2023-04-23T22:01:36.645Z,11.50
2023-04-23T22:04:05.135Z,11.50
2023-04-23T22:06:34.336Z,11.60
2023-04-23T22:09:02.570Z,11.60
2023-04-23T22:11:31.830Z,11.60
2023-04-23T22:14:00.167Z,11.70
2023-04-23T22:16:29.235Z,11.70
2023-04-23T22:18:58.293Z,11.60
2023-04-23T22:21:26.470Z,11.60
2023-04-23T22:23:54.408Z,11.70
2023-04-23T22:26:22.247Z,11.70
2023-04-23T22:28:51.545Z,11.70
2023-04-23T22:31:19.727Z,11.70
2023-04-23T22:33:47.720Z,11.70
2023-04-23T22:36:15.670Z,11.70
2023-04-23T22:38:43.699Z,11.80
2023-04-23T22:41:11.615Z,11.70
2023-04-23T22:43:39.532Z,11.60
2023-04-23T22:46:08.849Z,11.50
2023-04-23T22:48:37.905Z,11.40
2023-04-23T22:51:06.996Z,11.40
2023-04-23T22:53:34.862Z,11.40
2023-04-23T22:56:02.953Z,11.40
2023-04-23T22:58:31.086Z,11.40
2023-04-23T23:00:58.971Z,11.40
2023-04-23T23:03:28.402Z,11.30
2023-04-23T23:05:56.412Z,11.40
2023-04-23T23:08:24.309Z,11.40
2023-04-23T23:10:52.176Z,11.40
2023-04-23T23:13:20.328Z,11.40
2023-04-23T23:15:48.222Z,11.50
2023-04-23T23:18:16.275Z,11.40
2023-04-23T23:20:45.559Z,11.30
2023-04-23T23:23:13.634Z,11.20
2023-04-23T23:25:41.530Z,11.20
2023-04-23T23:28:09.370Z,11.10
2023-04-23T23:30:37.536Z,11.00
2023-04-23T23:33:06.260Z,10.90
2023-04-23T23:35:34.158Z,10.80
2023-04-23T23:38:03.825Z,10.70
2023-04-23T23:40:31.762Z,10.60
2023-04-23T23:42:59.700Z,10.50
2023-04-23T23:45:27.852Z,10.50
2023-04-23T23:47:56.059Z,10.50
2023-04-23T23:50:23.965Z,10.50
2023-04-23T23:52:51.880Z,10.50
2023-04-23T23:55:21.493Z,10.50
2023-04-23T23:57:49.412Z,10.50
